Weather reports worldwide

Advertisment
Punta Galea Golf, Spain (8059): temperature & dewpoint: 10.07.2018 18:00:00 - 16.07.2018 18:00:00 (CEST)Punta Galea Golf, Spain (8059): wind speed & gusts: 10.07.2018 18:00:00 - 16.07.2018 18:00:00 (CEST)Punta Galea Golf, Spain (8059): wind direction: 10.07.2018 18:00:00 - 16.07.2018 18:00:00 (CEST)Punta Galea Golf, Spain (8059): reduced air pressure: 10.07.2018 18:00:00 - 16.07.2018 18:00:00 (CEST)Punta Galea Golf, Spain (8059): precipitation: 10.07.2018 18:00:00 - 16.07.2018 18:00:00 (CEST)
Date & Time tt [°C] td [°C] ff [km/h] ff [kn] fx [km/h] fx [kn] dd ppp [hPa] rr [mm]
16.07.2018 18:00:00 - - - - - - - - -
16.07.2018 17:00:00 20,1 18,1 17 9 36 19 WNW 1022,0 0,0
16.07.2018 16:00:00 19,9 18,2 20 11 36 19 WNW 1021,9 0,1
16.07.2018 15:00:00 19,6 17,8 12 7 34 19 WNW 1021,8 0,0
16.07.2018 14:00:00 19,8 17,8 22 12 38 21 WNW 1021,5 -
16.07.2018 13:00:00 20,3 18,1 20 11 38 21 WNW 1021,1 0,0
16.07.2018 12:00:00 19,6 17,8 16 9 37 20 WNW 1020,9 0,0
16.07.2018 11:00:00 20,0 16,8 17 9 42 23 WNW 1020,2 0,0
16.07.2018 10:00:00 19,8 16,6 15 8 32 17 W 1019,4 0,0
16.07.2018 09:00:00 19,4 17,0 13 7 31 17 WNW 1019,5 0,0
16.07.2018 08:00:00 18,8 16,8 13 7 39 21 WNW 1019,4 -
16.07.2018 07:00:00 18,7 16,5 20 11 36 20 WNW 1018,8 0,0
16.07.2018 06:00:00 18,5 17,7 16 9 39 21 WNW 1018,4 1,5
16.07.2018 05:00:00 19,6 17,9 20 11 42 23 WNW 1018,0 0,0
16.07.2018 04:00:00 19,7 17,6 26 14 40 22 WNW 1018,0 0,0
16.07.2018 03:00:00 19,8 18,1 14 8 39 21 W 1018,1 0,0
16.07.2018 02:00:00 20,1 18,8 16 9 33 18 WNW 1018,2 -
16.07.2018 01:00:00 20,3 18,2 16 9 26 14 WNW 1018,6 0,0
16.07.2018 00:00:00 20,6 18,7 9 5 22 12 W 1018,4 0,0
15.07.2018 23:00:00 21,1 19,9 9 5 34 19 W 1018,3 0,0
15.07.2018 22:00:00 21,0 20,2 16 9 31 17 WNW 1017,0 0,2
15.07.2018 21:00:00 21,4 20,4 12 7 28 15 WNW 1017,5 0,0
15.07.2018 20:00:00 21,7 20,5 15 8 27 14 NW 1016,4 -
15.07.2018 19:00:00 22,0 20,8 12 7 29 16 WNW 1016,7 0,0
15.07.2018 18:00:00 22,1 20,9 15 8 27 15 WNW 1016,6 0,0
15.07.2018 17:00:00 22,8 21,4 10 6 21 12 NW 1016,2 0,0
15.07.2018 16:00:00 24,1 22,4 11 6 24 13 WNW 1016,4 0,0
15.07.2018 15:00:00 23,8 21,7 9 5 19 10 NW 1016,6 0,0
15.07.2018 14:00:00 24,3 22,2 8 5 18 10 NNW 1016,7 -
15.07.2018 13:00:00 24,0 21,9 9 5 18 10 NW 1017,0 0,0
15.07.2018 12:00:00 23,8 21,7 7 4 17 9 NW 1017,0 0,0
15.07.2018 11:00:00 22,3 20,6 10 5 16 9 WNW 1017,2 0,0
15.07.2018 10:00:00 22,6 20,1 7 4 10 6 WNW 1017,0 0,0
15.07.2018 09:00:00 22,2 20,3 3 2 8 5 W 1016,8 0,0
15.07.2018 08:00:00 21,2 20,2 2 1 6 3 WSW 1016,9 -
15.07.2018 07:00:00 20,6 19,6 2 1 8 4 S 1016,7 0,0
15.07.2018 06:00:00 20,7 19,7 3 2 11 6 WSW 1016,5 0,0
15.07.2018 05:00:00 21,2 20,2 4 2 11 6 WNW 1016,5 0,0
15.07.2018 04:00:00 21,2 20,1 6 3 9 5 WNW 1016,7 0,0
15.07.2018 03:00:00 21,6 20,4 5 3 13 7 WNW 1017,1 0,0
15.07.2018 02:00:00 21,7 20,7 6 3 14 8 W 1017,4 -
15.07.2018 01:00:00 21,9 20,9 3 2 14 8 W 1017,5 0,0
15.07.2018 00:00:00 21,8 20,8 6 3 12 7 W 1017,1 0,0
14.07.2018 23:00:00 22,0 20,8 5 3 10 6 WNW 1017,4 0,0
14.07.2018 22:00:00 22,6 21,3 2 1 11 6 W 1017,2 0,0
14.07.2018 21:00:00 23,1 21,0 5 3 13 7 WNW 1016,4 0,0
14.07.2018 20:00:00 24,0 21,9 5 3 11 6 NNW 1016,0 -
14.07.2018 19:00:00 22,8 21,1 4 2 18 10 NW 1016,7 0,0
14.07.2018 18:00:00 23,8 21,3 7 4 16 8 N 1017,0 0,0
14.07.2018 17:00:00 24,6 21,9 8 4 15 8 N 1016,8 0,0
14.07.2018 16:00:00 24,6 21,9 9 5 16 8 N 1017,1 0,0
14.07.2018 15:00:00 24,1 21,6 10 5 16 9 N 1017,6 0,0
14.07.2018 14:00:00 24,4 21,7 10 5 16 9 NNE 1017,8 -
14.07.2018 13:00:00 23,6 20,9 8 4 13 7 NNE 1018,0 0,0
14.07.2018 12:00:00 23,6 20,9 7 4 11 6 NNE 1018,4 0,0
14.07.2018 11:00:00 22,2 20,1 5 3 8 5 N 1018,3 0,0
14.07.2018 10:00:00 22,1 21,1 1 1 10 5 SSE 1018,1 0,0
14.07.2018 09:00:00 20,1 19,4 7 4 12 7 SSE 1018,1 0,0
14.07.2018 08:00:00 19,3 18,6 6 3 9 5 SSE 1017,9 -
14.07.2018 07:00:00 18,8 18,2 6 3 8 5 SSE 1017,8 0,0
14.07.2018 06:00:00 19,3 18,6 0 0 4 2 SW 1018,0 0,0
14.07.2018 05:00:00 19,4 18,8 2 1 5 3 W 1017,8 0,0
14.07.2018 04:00:00 19,6 18,9 3 1 13 7 NE 1017,8 0,0
14.07.2018 03:00:00 19,8 19,1 0 0 30 16 NNW 1017,6 0,3
14.07.2018 02:00:00 20,4 19,6 4 2 12 7 SE 1018,8 -
14.07.2018 01:00:00 20,5 19,7 2 1 14 8 SSW 1019,8 2,0
14.07.2018 00:00:00 21,1 20,3 8 4 16 9 W 1020,7 0,8
13.07.2018 23:00:00 21,7 20,2 5 3 14 8 NW 1019,6 0,0
13.07.2018 22:00:00 21,8 19,9 4 2 19 10 N 1018,9 0,0
13.07.2018 21:00:00 21,6 19,7 6 4 12 6 ENE 1017,8 0,0
13.07.2018 20:00:00 22,1 20,1 5 3 10 5 ENE 1017,7 -
13.07.2018 19:00:00 22,4 19,8 5 3 21 11 ENE 1017,8 0,0
13.07.2018 18:00:00 23,0 20,1 13 7 27 15 ENE 1017,8 0,0
13.07.2018 17:00:00 23,5 20,3 14 8 25 14 NE 1017,9 0,0
13.07.2018 16:00:00 23,8 20,5 16 8 26 14 NE 1018,1 0,0
13.07.2018 15:00:00 23,5 20,1 17 9 27 15 NE 1018,4 0,0
13.07.2018 14:00:00 23,6 19,9 16 9 27 15 NE 1018,6 -
13.07.2018 13:00:00 23,7 19,6 12 6 32 17 NE 1019,0 0,0
13.07.2018 12:00:00 23,3 19,4 10 5 16 9 NNE 1019,3 0,0
13.07.2018 11:00:00 22,0 17,4 4 2 13 7 ESE 1019,3 0,0
13.07.2018 10:00:00 20,5 17,5 8 4 16 8 S 1019,3 0,0
13.07.2018 09:00:00 17,9 16,7 8 4 17 9 S 1019,3 0,0
13.07.2018 08:00:00 15,9 15,1 8 4 14 8 S 1019,7 -
13.07.2018 07:00:00 15,4 14,6 7 4 14 8 S 1019,5 0,0
13.07.2018 06:00:00 15,6 14,8 10 5 14 8 S 1019,3 0,0
13.07.2018 05:00:00 15,8 14,8 9 5 13 7 SSE 1019,5 0,0
13.07.2018 04:00:00 16,2 15,1 8 5 13 7 S 1019,5 0,0
13.07.2018 03:00:00 16,5 15,3 8 5 12 6 S 1019,8 0,0
13.07.2018 02:00:00 16,9 15,4 8 4 9 5 SSE 1019,9 -
13.07.2018 01:00:00 17,6 15,6 5 3 6 4 S 1020,3 0,0
13.07.2018 00:00:00 18,2 15,6 4 2 8 4 S 1020,5 0,0
12.07.2018 23:00:00 18,7 15,5 3 2 10 6 ESE 1020,2 0,0
12.07.2018 22:00:00 19,6 15,3 8 4 11 6 E 1019,6 0,0
12.07.2018 21:00:00 21,0 15,1 10 5 21 12 ENE 1019,3 0,0
12.07.2018 20:00:00 21,9 16,1 12 7 22 12 ENE 1019,1 -
12.07.2018 19:00:00 22,5 17,6 13 7 22 12 NE 1018,8 0,0
12.07.2018 18:00:00 22,9 20,1 9 5 19 10 N 1018,8 0,0
12.07.2018 17:00:00 23,0 20,3 8 4 18 10 NNW 1019,0 0,0
12.07.2018 16:00:00 - - - - - - - - -
12.07.2018 15:00:00 - - - - - - - - -
12.07.2018 14:00:00 - - - - - - - - -
12.07.2018 13:00:00 - - - - - - - - -
12.07.2018 12:00:00 - - - - - - - - -
12.07.2018 11:00:00 - - - - - - - - -
12.07.2018 10:00:00 - - - - - - - - -
12.07.2018 09:00:00 - - - - - - - - -
12.07.2018 08:00:00 - - - - - - - - -
12.07.2018 07:00:00 - - - - - - - - -
12.07.2018 06:00:00 - - - - - - - - -
12.07.2018 05:00:00 - - - - - - - - -
12.07.2018 04:00:00 - - - - - - - - -
12.07.2018 03:00:00 - - - - - - - - -
12.07.2018 02:00:00 - - - - - - - - -
12.07.2018 01:00:00 - - - - - - - - -
12.07.2018 00:00:00 - - - - - - - - -
11.07.2018 23:00:00 - - - - - - - - -
11.07.2018 22:00:00 - - - - - - - - -
11.07.2018 21:00:00 - - - - - - - - -
11.07.2018 20:00:00 - - - - - - - - -
11.07.2018 19:00:00 - - - - - - - - -
11.07.2018 18:00:00 22,7 21,1 10 6 18 10 NE 1015,8 0,0
11.07.2018 17:00:00 22,6 20,5 7 4 31 17 NNE 1016,5 0,0
11.07.2018 16:00:00 23,4 20,3 12 6 17 9 NNE 1017,7 0,0
11.07.2018 15:00:00 24,2 20,7 8 5 22 12 N 1018,9 0,0
11.07.2018 14:00:00 23,3 20,8 11 6 21 12 WNW 1019,1 -
11.07.2018 13:00:00 22,8 20,5 9 5 17 9 NW 1018,5 0,0
11.07.2018 12:00:00 22,8 20,3 6 4 13 7 NNW 1018,2 0,0
11.07.2018 11:00:00 22,1 19,8 5 3 10 5 NNW 1018,2 0,0
11.07.2018 10:00:00 20,4 19,4 2 1 9 5 ESE 1018,4 0,0
11.07.2018 09:00:00 19,5 18,7 6 4 10 6 SE 1018,3 0,0
11.07.2018 08:00:00 18,4 17,6 6 4 11 6 SSE 1018,5 -
11.07.2018 07:00:00 18,0 17,2 7 4 10 5 SSE 1018,6 0,0
11.07.2018 06:00:00 18,0 17,2 7 4 9 5 SSE 1018,5 0,0
11.07.2018 05:00:00 18,6 17,9 6 3 9 5 SSE 1018,8 0,0
11.07.2018 04:00:00 19,5 18,7 0 0 6 3 WSW 1019,2 0,0
11.07.2018 03:00:00 19,8 19,0 2 1 7 4 WSW 1019,4 0,0
11.07.2018 02:00:00 20,0 19,2 0 0 7 4 N 1019,6 -
11.07.2018 01:00:00 20,8 20,0 4 2 7 4 W 1019,7 0,0
11.07.2018 00:00:00 21,2 20,4 4 2 6 4 W 1020,0 0,0
10.07.2018 23:00:00 21,5 20,7 3 2 7 4 WNW 1020,0 0,0
10.07.2018 22:00:00 21,8 20,8 3 2 10 5 WNW 1019,7 0,0
10.07.2018 21:00:00 22,9 21,3 5 3 10 6 NW 1019,5 0,0
10.07.2018 20:00:00 23,2 21,4 5 3 13 7 NW 1019,5 -
10.07.2018 19:00:00 23,7 22,1 6 4 14 8 NW 1019,7 0,0
10.07.2018 18:00:00 22,9 21,3 8 5 16 9 NW 1020,0 0,0

tt = temperature
td = dewpoint
ff = wind speed
fx = gusts
dd = wind direction
ppp = reduced air pressure
rr = precipitation

Next stations